Time;durP1;ratioP1;P1;durP2;ratioP2;P2;SDS_P1;SDS_P2;PMS_P1;PMS_P2;Temp;Humidity;BMP_temperature;BMP_pressure;BME280_temperature;BME280_humidity;BME280_pressure;Samples;Min_cycle;Max_cycle;Signal;HPM_P1;HPM_P2
2020/12/26 00:01:08;;;;;;;17.33;10.20;;;3.20;99.90;;;;;;5034372;28;20037;-66
2020/12/26 00:03:33;;;;;;;;;;;3.20;99.90;;;;;;5033439;28;20025;-66
2020/12/26 00:05:59;;;;;;;18.00;11.60;;;3.20;99.90;;;;;;5033841;28;19912;-67
2020/12/26 00:08:24;;;;;;;18.77;10.82;;;3.10;99.90;;;;;;5034459;28;20029;-67
2020/12/26 00:10:50;;;;;;;24.52;11.18;;;3.10;99.90;;;;;;5033543;28;20045;-66
2020/12/26 00:13:19;;;;;;;17.58;11.40;;;3.10;99.90;;;;;;5034699;28;20037;-66
2020/12/26 00:15:44;;;;;;;21.48;11.27;;;3.10;99.90;;;;;;5033160;28;20025;-73
2020/12/26 00:18:10;;;;;;;18.10;10.95;;;3.10;99.90;;;;;;5015919;28;20032;-68
2020/12/26 00:20:36;;;;;;;20.90;10.18;;;3.10;99.90;;;;;;4999178;28;20453;-67
2020/12/26 00:23:01;;;;;;;25.50;11.65;;;3.10;99.90;;;;;;5033343;28;20026;-67
2020/12/26 00:25:27;;;;;;;22.50;11.55;;;3.00;99.90;;;;;;5015790;28;20383;-68
2020/12/26 00:27:53;;;;;;;20.75;11.68;;;2.90;99.90;;;;;;5032384;28;20614;-68
2020/12/26 00:30:18;;;;;;;20.48;9.68;;;3.10;99.90;;;;;;5033706;28;20466;-66
2020/12/26 00:32:44;;;;;;;19.83;10.43;;;3.20;99.90;;;;;;5033172;28;20040;-72
2020/12/26 00:35:10;;;;;;;18.85;10.80;;;3.40;99.90;;;;;;5015604;28;20366;-66
2020/12/26 00:37:35;;;;;;;16.25;10.85;;;3.40;99.90;;;;;;5015194;28;20076;-67
2020/12/26 00:40:04;;;;;;;17.50;9.85;;;3.40;99.90;;;;;;5033676;28;20057;-68
2020/12/26 00:42:29;;;;;;;16.83;9.80;;;3.30;99.90;;;;;;5015707;28;20025;-67
2020/12/26 00:44:55;;;;;;;20.23;9.75;;;3.30;99.90;;;;;;5014912;28;20469;-67
2020/12/26 00:47:20;;;;;;;18.13;11.20;;;3.30;99.90;;;;;;5033143;28;20069;-67
2020/12/26 00:49:49;;;;;;;16.67;9.88;;;3.40;99.90;;;;;;5033316;28;20036;-68
2020/12/26 00:52:14;;;;;;;24.50;10.38;;;3.30;99.90;;;;;;5033859;28;20032;-68
2020/12/26 00:54:41;;;;;;;16.20;9.93;;;3.30;99.90;;;;;;5033055;28;20026;-70
2020/12/26 00:57:06;;;;;;;15.00;9.20;;;3.20;99.90;;;;;;5033516;28;20034;-67
2020/12/26 00:59:32;;;;;;;16.02;9.20;;;3.10;99.90;;;;;;5015706;28;20455;-68
2020/12/26 01:01:58;;;;;;;21.30;10.85;;;3.20;99.90;;;;;;5032667;28;20080;-74
2020/12/26 01:04:23;;;;;;;15.13;9.55;;;3.10;99.90;;;;;;5033290;28;20025;-67
2020/12/26 01:06:56;;;;;;;23.27;10.88;;;3.10;99.90;;;;;;5033310;28;20379;-67
2020/12/26 01:09:25;;;;;;;22.60;9.93;;;3.20;99.90;;;;;;5033374;28;20025;-68
2020/12/26 01:11:51;;;;;;;17.20;9.77;;;3.20;99.90;;;;;;5010891;28;20093;-66
2020/12/26 01:14:17;;;;;;;17.02;11.57;;;3.10;99.90;;;;;;5012531;28;20026;-65
2020/12/26 01:16:47;;;;;;;15.23;10.13;;;3.20;99.90;;;;;;5012840;28;20060;-66
2020/12/26 01:19:13;;;;;;;17.90;9.32;;;3.20;99.90;;;;;;5013670;28;20109;-67
2020/12/26 01:21:39;;;;;;;18.42;9.73;;;3.00;99.90;;;;;;5012089;28;20049;-67
2020/12/26 01:24:04;;;;;;;15.80;8.43;;;3.10;99.90;;;;;;5013235;28;20033;-69
2020/12/26 01:26:30;;;;;;;18.15;10.30;;;3.00;99.90;;;;;;5013930;28;20026;-68
2020/12/26 01:28:56;;;;;;;20.90;10.55;;;2.90;99.90;;;;;;5013133;28;20459;-68
2020/12/26 01:31:21;;;;;;;18.02;8.68;;;2.80;99.90;;;;;;5014061;28;20525;-67
2020/12/26 01:33:47;;;;;;;16.88;9.23;;;2.80;99.90;;;;;;5014287;28;20105;-70
2020/12/26 01:36:13;;;;;;;14.85;10.15;;;2.80;99.90;;;;;;5015216;28;20033;-70
2020/12/26 01:38:39;;;;;;;16.88;10.00;;;2.90;99.90;;;;;;5013049;28;20093;-67
2020/12/26 01:41:05;;;;;;;19.55;9.43;;;2.90;99.90;;;;;;5015211;28;20050;-68
2020/12/26 01:43:31;;;;;;;16.90;9.82;;;2.70;99.90;;;;;;5013397;28;20030;-68
2020/12/26 01:45:57;;;;;;;15.70;9.32;;;2.80;99.90;;;;;;5013801;28;20022;-68
2020/12/26 01:48:23;;;;;;;23.17;9.55;;;2.70;99.90;;;;;;5014570;28;20034;-68
2020/12/26 01:50:51;;;;;;;20.42;9.68;;;2.60;99.90;;;;;;5011855;28;20034;-67
2020/12/26 01:53:18;;;;;;;17.90;9.55;;;2.50;99.90;;;;;;5011959;28;20038;-66
2020/12/26 01:55:47;;;;;;;27.42;11.30;;;2.40;99.90;;;;;;5012219;28;20026;-68
2020/12/26 01:58:14;;;;;;;18.42;9.73;;;2.40;99.90;;;;;;5012558;28;20057;-67
2020/12/26 02:00:40;;;;;;;14.15;8.57;;;2.40;99.90;;;;;;5011245;28;20145;-67
2020/12/26 02:03:05;;;;;;;18.05;9.63;;;2.50;99.90;;;;;;5011483;28;20150;-67
2020/12/26 02:05:32;;;;;;;21.80;10.57;;;2.50;99.90;;;;;;5012481;28;20495;-68
2020/12/26 02:07:58;;;;;;;17.02;9.98;;;2.50;99.90;;;;;;5010504;28;20050;-68
2020/12/26 02:10:24;;;;;;;17.65;9.93;;;2.50;99.90;;;;;;5010928;28;20052;-67
2020/12/26 02:12:49;;;;;;;17.80;9.18;;;2.40;99.90;;;;;;5011823;28;20022;-67
2020/12/26 02:15:15;;;;;;;16.58;9.50;;;2.40;99.90;;;;;;5011222;28;20487;-67
2020/12/26 02:17:41;;;;;;;17.48;10.25;;;2.40;99.90;;;;;;5010558;28;20034;-67
2020/12/26 02:20:08;;;;;;;20.38;10.02;;;2.40;99.90;;;;;;5011888;28;20087;-68
2020/12/26 02:22:34;;;;;;;21.35;10.90;;;2.50;99.90;;;;;;5011394;28;20026;-67
2020/12/26 02:24:59;;;;;;;18.08;9.40;;;2.50;99.90;;;;;;5012125;28;20025;-68
2020/12/26 02:27:25;;;;;;;16.63;10.40;;;2.60;99.90;;;;;;5014761;28;20037;-68
2020/12/26 02:29:51;;;;;;;16.88;10.60;;;2.60;99.90;;;;;;5015481;28;20076;-67
2020/12/26 02:32:16;;;;;;;17.50;10.75;;;2.50;99.90;;;;;;5014680;28;20049;-67
2020/12/26 02:34:42;;;;;;;19.58;10.25;;;2.50;99.90;;;;;;5016065;28;20044;-66
2020/12/26 02:37:08;;;;;;;17.58;9.98;;;2.30;99.90;;;;;;5015435;28;20041;-70
2020/12/26 02:39:33;;;;;;;14.90;9.70;;;2.40;99.90;;;;;;5014552;28;20049;-67
2020/12/26 02:41:59;;;;;;;17.92;10.02;;;2.50;99.90;;;;;;5015123;28;20026;-67
2020/12/26 02:44:25;;;;;;;20.42;10.75;;;2.60;99.90;;;;;;5015667;28;20482;-68
2020/12/26 02:46:51;;;;;;;20.10;10.73;;;2.50;99.90;;;;;;5014973;28;20368;-66
2020/12/26 02:49:17;;;;;;;21.25;10.70;;;2.50;99.90;;;;;;5015560;28;20033;-66
2020/12/26 02:51:43;;;;;;;21.27;11.32;;;2.70;99.90;;;;;;5015423;28;20419;-67
2020/12/26 02:54:11;;;;;;;22.38;11.52;;;2.70;99.90;;;;;;5015236;28;20026;-68
2020/12/26 02:56:41;;;;;;;19.73;10.48;;;2.80;99.90;;;;;;5016864;28;20103;-68
2020/12/26 02:59:08;;;;;;;22.70;13.57;;;2.70;99.90;;;;;;5015187;28;20212;-70
2020/12/26 03:01:34;;;;;;;16.77;11.25;;;2.90;99.90;;;;;;5015953;28;20026;-67
2020/12/26 03:04:00;;;;;;;19.67;10.23;;;2.90;99.90;;;;;;5014785;28;20038;-67
2020/12/26 03:06:25;;;;;;;15.00;9.98;;;2.80;99.90;;;;;;5014935;28;20443;-67
2020/12/26 03:08:51;;;;;;;19.38;10.55;;;2.80;99.90;;;;;;5013318;28;20030;-67
2020/12/26 03:11:17;;;;;;;24.05;11.13;;;2.90;99.90;;;;;;5030068;28;20125;-66
2020/12/26 03:13:42;;;;;;;20.33;11.10;;;2.80;99.90;;;;;;5017200;28;20025;-67
2020/12/26 03:16:08;;;;;;;22.73;11.45;;;2.90;99.90;;;;;;5034574;28;20317;-66
2020/12/26 03:18:33;;;;;;;18.70;10.60;;;2.70;99.90;;;;;;5034735;28;20437;-67
2020/12/26 03:20:59;;;;;;;19.23;10.57;;;2.60;99.90;;;;;;5034617;28;20033;-67
2020/12/26 03:23:25;;;;;;;19.30;11.10;;;2.60;99.90;;;;;;5035369;28;20029;-67
2020/12/26 03:25:50;;;;;;;19.08;11.68;;;2.60;99.90;;;;;;5017973;28;20064;-67
2020/12/26 03:28:16;;;;;;;20.13;12.70;;;2.50;99.90;;;;;;5018735;28;20083;-67
2020/12/26 03:30:42;;;;;;;21.10;11.80;;;2.50;99.90;;;;;;5035696;28;20062;-66
2020/12/26 03:33:07;;;;;;;21.42;12.15;;;2.60;99.90;;;;;;5034477;28;20049;-67
2020/12/26 03:35:33;;;;;;;23.42;11.95;;;2.60;99.90;;;;;;5017514;28;20025;-66
2020/12/26 03:37:58;;;;;;;19.85;12.20;;;2.70;99.90;;;;;;5033760;28;20025;-69
2020/12/26 03:40:24;;;;;;;19.63;10.75;;;2.30;99.90;;;;;;5016836;28;20553;-67
2020/12/26 03:42:50;;;;;;;17.20;11.45;;;2.40;99.90;;;;;;5033469;28;20051;-66
2020/12/26 03:45:15;;;;;;;19.23;11.48;;;2.30;99.90;;;;;;5035149;28;20085;-68
2020/12/26 03:47:41;;;;;;;20.95;12.40;;;2.30;99.90;;;;;;5035416;28;20094;-68
2020/12/26 03:50:07;;;;;;;20.45;11.38;;;2.30;99.90;;;;;;5016739;28;20099;-68
2020/12/26 03:52:32;;;;;;;19.83;10.93;;;2.60;99.90;;;;;;5034956;28;20025;-67
2020/12/26 03:54:58;;;;;;;20.98;11.13;;;2.50;99.90;;;;;;5034004;28;20040;-66
2020/12/26 03:57:24;;;;;;;18.23;11.13;;;2.40;99.90;;;;;;5016998;28;20029;-67
2020/12/26 03:59:49;;;;;;;20.92;12.20;;;2.50;99.90;;;;;;5033345;28;20040;-69
2020/12/26 04:02:15;;;;;;;18.30;10.30;;;2.40;99.90;;;;;;5033630;28;20029;-66
2020/12/26 04:04:41;;;;;;;15.73;10.77;;;2.40;99.90;;;;;;5033830;28;20026;-67
2020/12/26 04:07:06;;;;;;;20.17;10.75;;;2.60;99.90;;;;;;5032956;28;20125;-67
2020/12/26 04:09:32;;;;;;;20.85;11.50;;;2.70;99.90;;;;;;5016241;28;20053;-67
2020/12/26 04:11:58;;;;;;;19.05;11.05;;;2.60;99.90;;;;;;5015502;28;20104;-66
2020/12/26 04:14:23;;;;;;;19.83;11.07;;;2.60;99.90;;;;;;5016416;28;20029;-66
2020/12/26 04:16:57;;;;;;;20.83;11.18;;;2.60;99.90;;;;;;5015840;28;20030;-67
2020/12/26 04:19:25;;;;;;;15.38;9.63;;;2.50;99.90;;;;;;5016357;28;20037;-67
2020/12/26 04:21:52;;;;;;;21.58;12.13;;;2.50;99.90;;;;;;5015185;28;20033;-67
2020/12/26 04:24:17;;;;;;;17.70;10.95;;;2.60;99.90;;;;;;5034364;28;20537;-66
2020/12/26 04:26:43;;;;;;;19.20;10.55;;;2.70;99.90;;;;;;5033605;28;20101;-67
2020/12/26 04:29:09;;;;;;;17.35;10.85;;;2.80;99.90;;;;;;5033126;28;20032;-67
2020/12/26 04:31:35;;;;;;;16.52;11.00;;;2.70;99.90;;;;;;5017455;28;20037;-67
2020/12/26 04:34:00;;;;;;;19.17;11.30;;;2.40;99.90;;;;;;5033725;28;20437;-66
2020/12/26 04:36:26;;;;;;;19.40;11.10;;;2.50;99.90;;;;;;5016698;28;20426;-67
2020/12/26 04:38:51;;;;;;;21.25;10.52;;;2.60;99.90;;;;;;5033321;28;20034;-67
2020/12/26 04:41:19;;;;;;;22.73;10.75;;;2.40;99.90;;;;;;5016026;28;20033;-66
2020/12/26 04:43:45;;;;;;;16.92;10.50;;;2.50;99.90;;;;;;5015740;28;20034;-66
2020/12/26 04:46:20;;;;;;;19.05;10.45;;;2.60;99.90;;;;;;5032377;28;20606;-67
2020/12/26 04:49:06;;;;;;;22.13;10.70;;;2.50;99.90;;;;;;5015747;28;20148;-67
2020/12/26 04:51:34;;;;;;;16.38;10.30;;;2.50;99.90;;;;;;5033522;28;20406;-66
2020/12/26 04:54:07;;;;;;;19.17;10.38;;;2.60;99.90;;;;;;5032656;28;20375;-71
2020/12/26 04:56:41;;;;;;;16.85;8.90;;;2.50;99.90;;;;;;5015845;28;20383;-66
2020/12/26 04:59:08;;;;;;;17.05;9.18;;;2.70;99.90;;;;;;5032425;28;20545;-67
2020/12/26 05:01:37;;;;;;;17.92;9.35;;;2.70;99.90;;;;;;5016867;28;20032;-67
2020/12/26 05:04:05;;;;;;;26.13;10.73;;;2.60;99.90;;;;;;5015690;28;20080;-68
2020/12/26 05:06:35;;;;;;;16.85;9.52;;;2.80;99.90;;;;;;5016234;28;20025;-67
2020/12/26 05:09:01;;;;;;;29.45;10.18;;;2.80;99.90;;;;;;5015058;28;20037;-67
2020/12/26 05:11:27;;;;;;;18.15;10.77;;;2.70;99.90;;;;;;5015592;28;20098;-67
2020/12/26 05:13:52;;;;;;;19.38;9.30;;;2.80;99.90;;;;;;5015458;28;20068;-66
2020/12/26 05:16:20;;;;;;;19.20;9.23;;;2.80;99.90;;;;;;5032855;28;20033;-67
2020/12/26 05:18:48;;;;;;;24.50;10.35;;;2.90;99.90;;;;;;5032593;28;20041;-68
2020/12/26 05:21:23;;;;;;;19.95;10.70;;;2.90;99.90;;;;;;5032340;28;20083;-71
2020/12/26 05:24:02;;;;;;;16.45;9.40;;;2.90;99.90;;;;;;5015262;28;20030;-68
2020/12/26 05:26:30;;;;;;;21.88;10.07;;;3.10;99.90;;;;;;5015730;28;20036;-67
2020/12/26 05:29:02;;;;;;;16.40;9.50;;;2.90;99.90;;;;;;5032229;28;20037;-67
2020/12/26 05:31:47;;;;;;;;;;;2.90;99.90;;;;;;5016061;28;20132;-67
2020/12/26 05:34:13;;;;;;;17.90;9.18;;;2.90;99.90;;;;;;5017049;28;20371;-68
2020/12/26 05:36:39;;;;;;;15.68;9.20;;;2.90;99.90;;;;;;5036547;28;20104;-70
2020/12/26 05:39:06;;;;;;;20.00;10.05;;;2.80;99.90;;;;;;5035255;28;20102;-72
2020/12/26 05:41:31;;;;;;;17.20;9.10;;;2.80;99.90;;;;;;5034776;28;20131;-68
2020/12/26 05:43:58;;;;;;;17.30;10.32;;;2.80;99.90;;;;;;5034573;28;20423;-67
2020/12/26 05:46:24;;;;;;;20.48;8.93;;;2.60;99.90;;;;;;5034063;28;20029;-68
2020/12/26 05:48:50;;;;;;;21.65;11.73;;;2.60;99.90;;;;;;5033553;28;20140;-69
2020/12/26 05:51:28;;;;;;;16.08;9.40;;;2.50;99.90;;;;;;5014727;28;20033;-68
2020/12/26 05:53:57;;;;;;;20.75;9.50;;;2.60;99.90;;;;;;5035615;28;20036;-66
2020/12/26 05:56:23;;;;;;;22.92;8.98;;;2.60;99.90;;;;;;5034776;28;20096;-69
2020/12/26 05:58:49;;;;;;;15.55;8.85;;;2.60;99.90;;;;;;5033911;28;20037;-68
2020/12/26 06:01:21;;;;;;;22.10;10.90;;;2.60;99.90;;;;;;5033602;28;20025;-67
2020/12/26 06:03:47;;;;;;;13.90;8.82;;;2.80;99.90;;;;;;5036804;28;20045;-68
2020/12/26 06:06:15;;;;;;;14.98;9.25;;;2.60;99.90;;;;;;5035901;28;20647;-68
2020/12/26 06:08:41;;;;;;;18.63;8.88;;;2.60;99.90;;;;;;5036737;28;20056;-68
2020/12/26 06:11:07;;;;;;;21.48;10.35;;;2.60;99.90;;;;;;5036112;28;20091;-69
2020/12/26 06:13:36;;;;;;;16.85;9.35;;;2.70;99.90;;;;;;5019622;28;20044;-69
2020/12/26 06:16:22;;;;;;;14.05;8.68;;;2.80;99.90;;;;;;5036474;28;20025;-66
2020/12/26 06:18:57;;;;;;;14.80;8.02;;;3.00;99.90;;;;;;5037046;28;20498;-68
2020/12/26 06:21:26;;;;;;;15.30;8.90;;;2.90;99.90;;;;;;5036503;28;20025;-69
2020/12/26 06:23:53;;;;;;;13.00;9.25;;;2.80;99.90;;;;;;5036718;28;20029;-68
2020/12/26 06:26:20;;;;;;;19.52;10.95;;;2.80;99.90;;;;;;5019353;28;20126;-68
2020/12/26 06:28:49;;;;;;;13.65;8.38;;;2.70;99.90;;;;;;5020805;28;20125;-70
2020/12/26 06:31:18;;;;;;;16.13;9.77;;;2.70;99.90;;;;;;5038243;28;20034;-68
2020/12/26 06:33:51;;;;;;;14.27;9.05;;;2.70;99.90;;;;;;5020936;28;20033;-68
2020/12/26 06:36:18;;;;;;;19.45;10.10;;;2.60;99.90;;;;;;5038233;28;20021;-67
2020/12/26 06:38:45;;;;;;;13.60;8.13;;;2.70;99.90;;;;;;5038153;28;20029;-68
2020/12/26 06:41:15;;;;;;;14.68;8.68;;;2.80;99.90;;;;;;5038008;28;20521;-69
2020/12/26 06:43:53;;;;;;;13.13;8.48;;;2.80;99.90;;;;;;5038788;28;20056;-68
2020/12/26 06:46:21;;;;;;;13.23;8.10;;;2.90;99.90;;;;;;5020299;28;20497;-69
2020/12/26 06:48:53;;;;;;;19.45;8.77;;;2.90;99.90;;;;;;5036832;28;20041;-69
2020/12/26 06:51:37;;;;;;;20.13;10.38;;;2.80;99.90;;;;;;5037757;28;20088;-69
2020/12/26 06:54:09;;;;;;;16.88;9.48;;;2.80;99.90;;;;;;5019334;28;20471;-68
2020/12/26 06:56:35;;;;;;;14.73;9.05;;;2.80;99.90;;;;;;5037296;28;20037;-69
2020/12/26 06:59:04;;;;;;;17.58;10.70;;;2.60;99.90;;;;;;5037125;28;20022;-66
2020/12/26 07:01:32;;;;;;;18.17;9.52;;;2.80;99.90;;;;;;5037700;28;20380;-68
2020/12/26 07:04:17;;;;;;;20.23;10.73;;;2.90;99.90;;;;;;5020913;28;20466;-67
2020/12/26 07:06:42;;;;;;;14.90;9.10;;;3.00;99.90;;;;;;5020506;28;20438;-69
2020/12/26 07:09:09;;;;;;;18.90;9.35;;;3.00;99.90;;;;;;5020266;28;20022;-68
2020/12/26 07:11:50;;;;;;;14.63;9.60;;;2.90;99.90;;;;;;5020007;28;20483;-70
2020/12/26 07:14:49;;;;;;;16.38;8.95;;;2.90;99.90;;;;;;5036027;28;20029;-67
2020/12/26 07:17:15;;;;;;;18.27;10.00;;;2.80;99.90;;;;;;5036517;28;20103;-68
2020/12/26 07:19:45;;;;;;;25.85;9.90;;;3.00;99.90;;;;;;5019001;28;20033;-68
2020/12/26 07:22:16;;;;;;;18.05;8.75;;;3.00;99.90;;;;;;5018544;28;20030;-69
2020/12/26 07:24:43;;;;;;;15.55;8.75;;;2.90;99.90;;;;;;5038534;28;20021;-70
2020/12/26 07:27:32;;;;;;;13.30;8.98;;;3.10;99.90;;;;;;5037192;28;20466;-68
2020/12/26 07:30:09;;;;;;;17.45;9.68;;;3.10;99.90;;;;;;5038383;28;20427;-70
2020/12/26 07:32:52;;;;;;;19.75;9.30;;;3.00;99.90;;;;;;5020334;28;20475;-69
2020/12/26 07:35:28;;;;;;;16.85;9.88;;;2.90;99.90;;;;;;5038298;28;20529;-68
2020/12/26 07:38:14;;;;;;;16.15;8.18;;;2.90;99.90;;;;;;5038090;28;20044;-68
2020/12/26 07:40:43;;;;;;;15.93;9.70;;;2.90;99.90;;;;;;5038333;28;20025;-69
2020/12/26 07:43:13;;;;;;;15.48;8.75;;;2.90;99.90;;;;;;5037442;28;20026;-69
2020/12/26 07:45:41;;;;;;;13.27;8.95;;;2.90;99.90;;;;;;5019734;28;20112;-68
2020/12/26 07:48:08;;;;;;;14.23;9.25;;;3.00;99.90;;;;;;5019945;28;20037;-75
2020/12/26 07:50:36;;;;;;;15.65;9.63;;;3.00;99.90;;;;;;5020278;28;20097;-67
2020/12/26 07:53:05;;;;;;;20.42;9.32;;;2.70;99.90;;;;;;5037352;28;20025;-67
2020/12/26 07:55:31;;;;;;;16.55;10.23;;;2.60;99.90;;;;;;5019556;28;20026;-69
2020/12/26 07:58:14;;;;;;;16.20;8.70;;;2.70;99.90;;;;;;5036256;28;20450;-68
2020/12/26 08:00:41;;;;;;;16.13;9.98;;;2.70;99.90;;;;;;5019509;28;20033;-69
2020/12/26 08:03:09;;;;;;;13.63;8.77;;;2.80;99.90;;;;;;5036115;28;20033;-67
2020/12/26 08:05:36;;;;;;;18.63;9.80;;;2.80;99.90;;;;;;5018520;28;20025;-69
2020/12/26 08:08:15;;;;;;;19.48;9.38;;;2.80;99.90;;;;;;5019437;28;20034;-67
2020/12/26 08:10:42;;;;;;;17.17;9.60;;;2.80;99.90;;;;;;5019366;28;20045;-70
2020/12/26 08:13:16;;;;;;;18.48;9.68;;;2.70;99.90;;;;;;5036617;28;20104;-69
2020/12/26 08:15:42;;;;;;;22.27;9.13;;;2.60;99.90;;;;;;5018819;28;20032;-68
2020/12/26 08:18:08;;;;;;;24.15;9.93;;;2.50;99.90;;;;;;5033461;28;20026;-68
2020/12/26 08:20:35;;;;;;;17.90;9.98;;;2.50;99.90;;;;;;5016884;28;20375;-69
2020/12/26 08:23:01;;;;;;;14.85;9.93;;;2.50;99.90;;;;;;5034931;28;20021;-68
2020/12/26 08:25:28;;;;;;;17.98;10.07;;;2.70;99.90;;;;;;5033990;28;20037;-67
2020/12/26 08:27:54;;;;;;;14.10;8.82;;;2.70;99.90;;;;;;5017693;28;20529;-68
2020/12/26 08:30:26;;;;;;;15.63;9.90;;;2.70;99.90;;;;;;5016835;28;20060;-69
2020/12/26 08:33:10;;;;;;;19.35;8.65;;;2.70;99.90;;;;;;5018482;28;20026;-68
2020/12/26 08:35:39;;;;;;;25.92;9.77;;;2.80;99.90;;;;;;5035844;28;20230;-67
2020/12/26 08:38:23;;;;;;;14.35;8.40;;;2.90;99.90;;;;;;5035238;28;20029;-69
2020/12/26 08:40:57;;;;;;;16.50;8.55;;;3.00;99.90;;;;;;5034955;28;20072;-68
2020/12/26 08:43:24;;;;;;;15.80;9.18;;;3.20;99.90;;;;;;5015805;28;20629;-68
2020/12/26 08:45:50;;;;;;;16.92;9.70;;;3.30;99.90;;;;;;5035502;28;20048;-69
2020/12/26 08:48:23;;;;;;;14.88;8.73;;;3.50;99.90;;;;;;5035058;28;20037;-72
2020/12/26 08:51:00;;;;;;;17.23;8.68;;;3.70;99.90;;;;;;5017232;28;20057;-68
2020/12/26 08:53:25;;;;;;;17.20;8.60;;;3.90;99.90;;;;;;5034328;28;20048;-69
2020/12/26 08:55:53;;;;;;;13.07;7.53;;;4.20;99.90;;;;;;5036879;28;20021;-70
2020/12/26 08:58:37;;;;;;;12.20;7.75;;;4.60;99.90;;;;;;5052157;28;20490;-70
2020/12/26 09:01:04;;;;;;;13.25;7.97;;;5.20;99.90;;;;;;5053544;28;20029;-72
2020/12/26 09:03:32;;;;;;;8.98;6.13;;;5.40;99.90;;;;;;5023985;28;20387;-69
2020/12/26 09:06:00;;;;;;;13.90;7.10;;;6.00;99.90;;;;;;5042422;28;20025;-69
2020/12/26 09:08:27;;;;;;;12.45;7.80;;;6.30;99.90;;;;;;5042957;28;20098;-69
2020/12/26 09:11:00;;;;;;;10.95;6.88;;;6.00;99.90;;;;;;5024954;28;20085;-69
2020/12/26 09:13:34;;;;;;;11.30;6.10;;;5.80;99.90;;;;;;5032528;28;20297;-67
2020/12/26 09:16:09;;;;;;;16.63;7.25;;;5.30;99.90;;;;;;5033975;28;20026;-69
2020/12/26 09:18:38;;;;;;;190.73;111.45;;;6.00;99.90;;;;;;5025056;28;20026;-70
2020/12/26 09:21:04;;;;;;;192.30;129.32;;;5.40;99.90;;;;;;5020202;28;20029;-66
2020/12/26 09:23:32;;;;;;;21.00;12.68;;;5.10;99.90;;;;;;5029863;28;20643;-69
2020/12/26 09:26:12;;;;;;;19.45;7.45;;;5.10;99.90;;;;;;5033406;28;20032;-70
2020/12/26 09:29:01;;;;;;;16.20;7.03;;;5.30;99.90;;;;;;5035992;28;20033;-66
2020/12/26 09:31:34;;;;;;;14.98;7.40;;;5.00;99.90;;;;;;5032516;28;20025;-68
2020/12/26 09:34:11;;;;;;;18.30;8.15;;;4.70;99.90;;;;;;5031388;28;20034;-69
2020/12/26 09:36:37;;;;;;;14.40;7.45;;;4.50;99.90;;;;;;5031443;28;20482;-69
2020/12/26 09:39:05;;;;;;;16.40;7.68;;;4.50;99.90;;;;;;5027915;28;20049;-68
2020/12/26 09:41:44;;;;;;;16.77;7.55;;;4.40;99.90;;;;;;5031265;28;20037;-68
2020/12/26 09:44:11;;;;;;;19.45;8.77;;;4.40;99.90;;;;;;5024563;28;20021;-66
2020/12/26 09:46:36;;;;;;;15.88;8.80;;;4.30;99.90;;;;;;5022067;28;20036;-68
2020/12/26 09:49:02;;;;;;;18.38;8.95;;;4.20;99.90;;;;;;5014812;28;20352;-69
2020/12/26 09:51:28;;;;;;;18.02;9.48;;;4.10;99.90;;;;;;5012020;28;20033;-69
2020/12/26 09:53:54;;;;;;;22.35;8.70;;;4.10;99.90;;;;;;5013971;28;20034;-69
2020/12/26 09:56:19;;;;;;;14.88;8.98;;;4.00;99.90;;;;;;5012785;28;20455;-68
2020/12/26 09:58:46;;;;;;;19.83;10.07;;;3.70;99.90;;;;;;5013965;28;20034;-69
2020/12/26 10:01:17;;;;;;;25.95;9.02;;;3.70;99.90;;;;;;5013083;28;20551;-66
2020/12/26 10:03:44;;;;;;;14.57;9.32;;;3.70;99.90;;;;;;5012660;28;20502;-68
2020/12/26 10:06:17;;;;;;;16.00;8.60;;;3.60;99.90;;;;;;5012240;28;20022;-66
2020/12/26 10:08:44;;;;;;;17.55;9.48;;;3.60;99.90;;;;;;5013909;28;20061;-68
2020/12/26 10:11:11;;;;;;;16.17;9.13;;;3.40;99.90;;;;;;5012419;28;20454;-66
2020/12/26 10:13:37;;;;;;;24.65;9.80;;;3.40;99.90;;;;;;5014174;28;20050;-68
2020/12/26 10:16:04;;;;;;;14.70;8.85;;;3.20;99.90;;;;;;5012586;28;20032;-69
2020/12/26 10:18:29;;;;;;;17.40;10.02;;;3.40;99.90;;;;;;5012885;28;20030;-67
2020/12/26 10:20:55;;;;;;;18.40;9.90;;;3.40;99.90;;;;;;5014416;28;20026;-68
2020/12/26 10:23:21;;;;;;;17.63;9.43;;;3.50;99.90;;;;;;5031937;28;20026;-66
2020/12/26 10:25:48;;;;;;;67.78;32.30;;;3.10;99.90;;;;;;5033928;28;20039;-68
2020/12/26 10:28:14;;;;;;;82.68;44.40;;;3.20;99.90;;;;;;5032985;28;20034;-67
2020/12/26 10:30:39;;;;;;;18.02;10.27;;;3.30;99.90;;;;;;5033511;28;20124;-69
2020/12/26 10:33:05;;;;;;;15.45;9.38;;;3.40;99.90;;;;;;5033011;28;20030;-67
2020/12/26 10:35:31;;;;;;;16.58;11.05;;;3.40;99.90;;;;;;5030897;28;20224;-68
2020/12/26 10:37:56;;;;;;;17.50;9.15;;;3.40;99.90;;;;;;5033039;28;20033;-68
2020/12/26 10:40:22;;;;;;;19.50;10.00;;;3.40;99.90;;;;;;5032940;28;20026;-67
2020/12/26 10:42:48;;;;;;;16.45;8.82;;;3.50;99.90;;;;;;5034510;28;20021;-67
2020/12/26 10:45:13;;;;;;;17.80;8.63;;;3.40;99.90;;;;;;5032810;28;20032;-67
2020/12/26 10:47:39;;;;;;;130.50;77.30;;;3.50;99.90;;;;;;5035165;28;20064;-70
2020/12/26 10:50:05;;;;;;;35.10;22.95;;;3.60;99.90;;;;;;5038152;28;20025;-68
2020/12/26 10:52:32;;;;;;;16.20;8.35;;;3.70;99.90;;;;;;5038879;28;20043;-68
2020/12/26 10:54:58;;;;;;;16.90;9.65;;;3.60;99.90;;;;;;5034774;28;20056;-68
2020/12/26 10:57:24;;;;;;;17.42;8.60;;;3.70;99.90;;;;;;5034290;28;20033;-67
2020/12/26 10:59:49;;;;;;;17.33;8.50;;;3.70;99.90;;;;;;5032829;28;20464;-67
2020/12/26 11:02:15;;;;;;;16.95;8.35;;;3.80;99.90;;;;;;5015381;28;20026;-67
2020/12/26 11:04:41;;;;;;;15.05;9.00;;;3.70;99.90;;;;;;5032527;28;20741;-67
2020/12/26 11:07:07;;;;;;;16.08;8.68;;;3.80;99.90;;;;;;5022950;28;20030;-66
2020/12/26 11:09:32;;;;;;;17.67;9.07;;;3.80;99.90;;;;;;5024064;28;20339;-66
2020/12/26 11:11:58;;;;;;;27.45;11.27;;;3.80;99.90;;;;;;5043413;28;20052;-67
2020/12/26 11:14:24;;;;;;;14.88;8.95;;;3.90;99.90;;;;;;5027267;28;20043;-67
2020/12/26 11:16:51;;;;;;;22.85;12.00;;;3.80;99.90;;;;;;5023410;28;20032;-69
2020/12/26 11:19:17;;;;;;;82.80;42.60;;;3.90;99.90;;;;;;5026831;28;20017;-67
2020/12/26 11:21:43;;;;;;;18.27;11.38;;;3.90;99.90;;;;;;5044584;28;21066;-66
2020/12/26 11:24:11;;;;;;;14.88;8.15;;;3.90;99.90;;;;;;5024592;28;20029;-67
2020/12/26 11:26:37;;;;;;;21.10;11.68;;;3.80;99.90;;;;;;5046510;28;20502;-63
2020/12/26 11:29:03;;;;;;;136.38;102.72;;;4.10;99.90;;;;;;5038278;28;20386;-62
2020/12/26 11:31:28;;;;;;;14.45;7.80;;;6.90;99.90;;;;;;5034514;28;20027;-67
2020/12/26 11:33:54;;;;;;;12.73;7.82;;;5.30;99.90;;;;;;5036832;28;20064;-67
2020/12/26 11:36:21;;;;;;;14.18;8.15;;;4.80;99.90;;;;;;5028973;28;20569;-67
2020/12/26 11:38:47;;;;;;;14.75;8.15;;;4.60;99.90;;;;;;5036750;28;20040;-67
2020/12/26 11:41:18;;;;;;;15.45;8.52;;;4.60;99.90;;;;;;5036391;28;20025;-67
2020/12/26 11:43:44;;;;;;;15.77;8.35;;;4.50;99.90;;;;;;5055175;28;20024;-67
2020/12/26 11:46:10;;;;;;;17.08;9.05;;;4.50;99.90;;;;;;5055042;28;20028;-67
2020/12/26 11:48:37;;;;;;;15.02;9.00;;;4.20;99.90;;;;;;5037794;28;20033;-66
2020/12/26 11:51:03;;;;;;;13.65;8.27;;;4.10;99.90;;;;;;5037723;28;20425;-75
2020/12/26 11:53:29;;;;;;;12.73;8.05;;;4.10;99.90;;;;;;5054818;28;20451;-68
2020/12/26 11:55:55;;;;;;;18.15;7.50;;;4.10;99.90;;;;;;5036843;28;20031;-68
2020/12/26 11:58:23;;;;;;;14.80;8.82;;;4.10;99.90;;;;;;5053778;28;20039;-68
2020/12/26 12:00:53;;;;;;;15.80;8.35;;;4.10;99.90;;;;;;5052155;28;20486;-66
2020/12/26 12:03:19;;;;;;;13.57;7.72;;;4.20;99.90;;;;;;5053207;28;20517;-66
2020/12/26 12:05:45;;;;;;;17.05;8.40;;;4.00;99.90;;;;;;5046819;28;20060;-68
2020/12/26 12:08:11;;;;;;;92.90;50.47;;;4.00;99.90;;;;;;5054420;28;20033;-69
2020/12/26 12:10:38;;;;;;;19.67;11.13;;;4.10;99.90;;;;;;5053604;28;20041;-70
2020/12/26 12:13:04;;;;;;;12.07;6.72;;;4.40;99.90;;;;;;5054255;28;20028;-68
2020/12/26 12:15:30;;;;;;;20.48;9.23;;;4.40;99.90;;;;;;5053273;28;20035;-71
2020/12/26 12:17:59;;;;;;;9.68;6.78;;;4.40;99.90;;;;;;5054782;28;20032;-71
2020/12/26 12:20:29;;;;;;;14.45;7.88;;;4.30;99.90;;;;;;5036607;28;20485;-67
2020/12/26 12:22:55;;;;;;;17.20;8.35;;;4.20;99.90;;;;;;5036824;28;20025;-68
2020/12/26 12:25:21;;;;;;;12.73;7.20;;;4.30;99.90;;;;;;5053837;28;20071;-68
2020/12/26 12:27:47;;;;;;;15.10;7.35;;;4.20;99.90;;;;;;5036355;28;20126;-68
2020/12/26 12:30:13;;;;;;;14.38;7.70;;;4.20;99.90;;;;;;5052677;28;20029;-68
2020/12/26 12:32:39;;;;;;;13.23;8.07;;;4.20;99.90;;;;;;5028879;28;20478;-68
2020/12/26 12:35:05;;;;;;;15.60;8.23;;;4.20;99.90;;;;;;5048924;28;20071;-68
2020/12/26 12:37:31;;;;;;;14.63;8.45;;;4.20;99.90;;;;;;5034596;28;20129;-68
2020/12/26 12:39:57;;;;;;;13.63;8.07;;;4.20;99.90;;;;;;5042783;28;20032;-68
2020/12/26 12:42:26;;;;;;;17.58;7.95;;;4.10;99.90;;;;;;5048712;28;20033;-70
2020/12/26 12:44:51;;;;;;;16.45;10.02;;;4.30;99.90;;;;;;5044181;28;20021;-69
2020/12/26 12:47:24;;;;;;;16.30;7.93;;;4.30;99.90;;;;;;5042258;28;20045;-72